Jackman, Maine
Current Conditions -  °F | °C
As of 9:00 AM on Thursday 23 Oct 2014 (Local Time) from CYSC Reporting Station
Light Rain Light Rain  
Wind Chill: 36°   Ceiling: 1600
Heat Index: 41°   Visibility: 9mi
Dew Point: 39°   Wind: 8mph
Humidity: 93%   Direction: 40°NE
Pressure: 30.01"   Gusts: 18mph
Location:  45.62°N, 70.25°W
Report Text: CYSC 231300Z AUTO 04007G16KT 9SM -RA OVC016 05/04 A3001 RMK PCPN 0.5MM PAST HR SLP170
Loading
Personal Weather Stations






























Interactive Weather Map New forecast layout! Learn more

10-Day Weather Forecast

Advertisements
Track Severe Weather on mobile